LIRQEGSS

Guest
Details From LIRQ - Firenze
To EGSS - London Stansted
Flight Number -
Tags Generated
Created
Modified
Stats Distance 655 nm / 1,213 km
Max Altitude 0 ft / 0 m
Waypoints 5
Social Downloads 0
Likes 0
Share VATSIM

Download

Looking for another format? Having issues loading an existing format? Contact us
Advertisement - Login to hide

Notes

Generated

Route

LIRQ BER SUIPE R2317 EGSS

ID Type Via Altitude Latitude Longitude Leg Dist Tot Dist Heading (true) Name
O LIRQ APT - 0 ft / 0 m 43.80507˚ 11.19741˚ - 0 nm - -
BER NDB - 0 ft / 0 m 46.89912˚ 7.51048˚ 242 nm 242 nm 321° / 319° BERN NDB
SUIPE FIX - 0 ft / 0 m 49.25333˚ 4.26500˚ 192 nm 434 nm 319° / 316° -
R2317 FIX - 0 ft / 0 m 51.87508˚ 0.21993˚ 220 nm 654 nm 317° / 314° -
O EGSS APT - 0 ft / 0 m 51.87508˚ 0.21993˚ 0 nm 654 nm 32° / 32° -

Altitude Profile

Advertisement - Login to hide

Weather


0- 5 10 15 20 25 30 35+ Temperature / ° C

Clouds and Precipitation
Forecast for 2018-05-21 18:00 UTC. Updated 6 hours ago

Ground ~20,000 ft ~40,000 ft Winds

LIRQ

Details ICAO LIRQ (FLR)
Name Firenze
Region Italy
Timezone Europe/Rome (UTC+2.0)
Stats Elevation 142 ft / 43 m (AMSL)
Location 43.809984° 11.205118°
Runways 1
Magnetic Variation 2.923° E

METAR

LIRQ 212250Z VRB01KT 8000 RA BKN050 16/15 Q1013

Decode

TAF

TAF LIRQ 211700Z 2118/2218 03006KT 9999 SCT030 TEMPO 2121/2209 TSRA TEMPO 2209/2215 SHRA

Decode

Departure Runways

ID Width Length Bearing (true) Bearing (mag) Surface Threshold Offset Overrun Length
05 98 ft / 30 m 5,420 ft / 1,652 m 48.52° 45.60° Asphalt 492 ft / 150 m 0 ft / 0 m
23 98 ft / 30 m 5,420 ft / 1,652 m 228.53° 225.61° Asphalt 2,287 ft / 697 m 0 ft / 0 m

EGSS

Details ICAO EGSS (STN)
Name London Stansted
Region United Kingdom
Timezone Europe/London (UTC+1.0)
Stats Elevation 348 ft / 106 m (AMSL)
Location 51.885097° 0.234962°
Runways 1
Magnetic Variation 0.298° W

METAR

EGSS 212320Z AUTO 34006KT 9999 NCD 13/10 Q1015

Decode

TAF

TAF EGSS 211701Z 2118/2224 01008KT 9999 FEW040 PROB30 TEMPO 2118/2119 4000 +SHRA TSGS PROB30 TEMPO 2123/2208 8000 SHRA PROB30 TEMPO 2214/2218 4000 +SHRA

Decode

Destination Runways

ID Width Length Bearing (true) Bearing (mag) Surface Threshold Offset Overrun Length
04 151 ft / 46 m 10,011 ft / 3,052 m 42.79° 43.09° Asphalt 994 ft / 303 m 0 ft / 0 m
22 151 ft / 46 m 10,011 ft / 3,052 m 222.81° 223.11° Asphalt 0 ft / 0 m 0 ft / 0 m

Approach Navaids

Runway Type Ident Frequency Range Bearing (true) Bearing (mag) Slope Elevation
04 Localiser ISED 110.50 MHz 18 nm / 33 km 42.80° 43.10° - 348 ft / 106 m (AMSL)
04 Glidescope ISED 110.50 MHz 10 nm / 19 km 42.80° 43.10° 3.00° 348 ft / 106 m (AMSL)
04 DME ISED 110.50 MHz 18 nm / 33 km - - - 348 ft / 106 m (AMSL)
22 Localiser ISX 110.50 MHz 18 nm / 33 km 222.80° 223.10° - 348 ft / 106 m (AMSL)
22 Glidescope ISX 110.50 MHz 10 nm / 19 km 222.80° 223.10° 3.00° 348 ft / 106 m (AMSL)
22 DME ISX 110.50 MHz 18 nm / 33 km - - - 348 ft / 106 m (AMSL)

Popular Alternatives